Relevés horaires Beauvechain (Belgique)


Relevés horaires à Beauvechain - Jeudi 13 Juill. 2017
Heure UTC1 Température [°C] Vent [km/h] Hum. [%] Pres.4 [hPa] Visi. [Km] Nébu. [octa] Préc.5 [mm] Cond.
2m. Res. Ros. Dir.2 Vit. Moy. Raf.3
23:00 16.2 16.2 8.4 NNO 1.9 -- 1.9 60 1018.6(-0.5/3h) 20 -- -- --
22:00 16.2 16.2 8.2 NNO 1.9 -- 1.9 59 1018.7(-0.4/3h) 20 -- -- --
21:00 16.6 16.6 8.2 NNO 1.9 -- 5.6 58 1019(-0.4/3h) 20 -- -- --
20:00 17.6 17.6 8.6 NNO 1.9 -- 3.7 56 1019.1(-0.5/3h) 20 -- -- --
19:00 19.2 19.2 9.1 NNO 3.7 -- 5.6 52 1019(-1.0/3h) 20 -- -- --
18:00 20.1 20.1 8.3 NE 3.7 -- 13.0 47 1019.2(-1.3/3h) 20 -- -- --
17:00 20.5 20.5 7.1 N 3.7 -- 7.4 42 1019.5(-1.4/3h) 20 -- -- --
16:00 20.8 20.8 6.2 NNO 1.9 -- 7.4 39 1020.5(-1.6/3h) 20 4/8 -- --
15:00 20.7 20.7 5.7 NNO 1.9 -- 13.0 38 1020.5(-1.5/3h) 20 4/8 -- --
14:00 19.9 19.9 7.0 NNO 1.9 -- 11.1 43 1021(-1.7/3h) 20 4/8 -- --
13:00 19.9 19.9 8.7 NNE 3.7 -- 13.0 48 1021.7(-1.5/3h) 20 4/8 -- --
12:00 19.2 19.2 7.5 ESE 3.7 -- 9.3 47 1022.2(-1.3/3h) 20 3/8 -- --
11:00 18.3 18.3 6.3 NE 5.6 -- 9.3 45 1022.8(-1.0/3h) 20 3/8 -- --
10:00 17.3 17.3 7.5 NNO 1.9 -- 9.3 52 1023.3(-0.6/3h) 20 3/8 -- --
09:00 16.8 16.8 8.6 NNO 1.9 -- 7.4 58 1023.7(-0.1/3h) 20 3/8 -- --
08:00 15.8 15.8 9.7 ENE 3.7 -- 7.4 67 1024(0.2/3h) 20 3/8 -- --
07:00 14.4 14.4 9.7 E 3.7 -- 5.6 73 1024.2(0.4/3h) 20 3/8 -- --
06:00 13.0 13.0 10.0 NNO 1.9 -- 3.7 82 1024(0.3/3h) 20 3/8 -- --
05:00 11.4 11.4 8.8 NNO 1.9 -- 0.0 84 1024(0.4/3h) 20 3/8 -- --
04:00 9.8 9.8 8.1 NNO 1.9 -- 1.9 89 1024(0.4/3h) 15 3/8 -- --
03:00 10.3 10.3 8.2 NNO 1.9 -- 3.7 87 1023.8(0.5/3h) 20 -- -- --
02:00 10.6 10.6 8.2 NNO 1.9 -- 1.9 85 1023.6(0.2/3h) 20 -- -- --
01:00 10.8 10.8 8.4 NNO 1.9 -- 3.7 85 1023.5(0.4/3h) 20 -- -- --
00:00 11.3 11.3 8.3 NNO 1.9 -- 16.7 82 1023.2(0.7/3h) 20 -- -- --

1 Coordinated Universal Time. Actuellement il est 03:00 locale et 01:00 UTC.

2 Le vent souffle depuis la direction indiquée vers la direction oposée.

3 Les rafales max. sont disponible 40 min après l'heure du relevé.

4 Pour les stations d'altitude (plus de 600m) le géopotentiel du niveau le plus proche de la pression obligatoire est indiqué.

5 Les stations disposant d'un diffuseur peuvent indiquer "trace". Cela signifie que des précipitations ont touchés le sol mais que la quantité est inférieure à 0.1 mm.

Récapitulatif de la journée
Température [°C] Vent [km/h] Ensoleillement4 [h] Precipitations totale5 [mm] Pression [Hpa]
Min1 Max.2 Moy.3 Max. Min Max.
9.5 21.6 0 16.7 0 h 0 min 0 1018.6 1024.2

1 Température minimale relevée entre 18:00 UTC la veille et 18:00 UTC le jour donné.

2 Température maximale relevée entre 06:00 UTC le jour donné et 06:00 UTC le lendemain.

3 Vent moyen de la journée basé sur les relevés horaires.

4 Ensoleillement en heures relevé entre 06:00 UTC la veille et 06:00 UTC le jour donné.

5 Précipitations totales tombées entre 06:00 UTC la jour donné et 06:00 UTC le lendemain.

Graphiques horaires